• Join FlightAware (Why Join?)
  • Login
  • US Flag 
04:53AM EDT


 

Airport Tracker/Info


-or-


 

Live Flight TrackerFlight Track Log ✈ EJA947 ✈ 16-Apr-2013 ✈ KBWI - KBOS

Flight Track Log - Related Links

Times and Time Zones

All times are in EDT time to prevent confusion due to time zone crossing. See the EJA947 flight status page for this flight to view local times or setup timezone preferences in your user account.

Time Position Orientation Groundspeed Altitude Reporting Facility
EDT Latitude Longitude Course Direction KTS MPH feet Rate Location/Type
02:42PM 39.1167 -76.6000 90° East 241 277 3,700  Level Potomac TRACON
02:43PM 39.0667 -76.5333 134° Southeast 286 329 6,800 2,880 Climbing Potomac TRACON
02:45PM 39.0942 -76.3644 78° East 311 358 12,200 2,160 Climbing Washington Center
02:46PM 39.1428 -76.2525 61° Northeast 330 380 13,300 1,500 Climbing Washington Center
02:47PM 39.1664 -76.1136 78° East 354 407 15,300 1,920 Climbing Washington Center
02:48PM 39.1500 -76.4315 90° East  Level FlightAware Approximate
02:48PM 39.1836 -75.9719 81° East 380 437 17,200  Level Washington Center
02:49PM 39.2278 -75.8356 67° East 397 457 18,500 1,620 Climbing Washington Center
02:50PM 39.3114 -75.7311 44° Northeast 397 457 20,500 1,860 Climbing Washington Center
02:51PM 39.3947 -75.6211 46° Northeast 408 470 22,300 1,800 Climbing Washington Center
02:53PM 39.5531 -75.4156 45° Northeast 441 507 25,600 1,800 Climbing New York Center
02:54PM 39.6431 -75.3000 45° Northeast 446 513 27,400 1,620 Climbing New York Center
02:55PM 39.7333 -75.1736 47° Northeast 453 521 28,900 1,560 Climbing New York Center
02:56PM 39.8214 -75.0414 49° Northeast 473 544 30,600 1,800 Climbing New York Center
02:57PM 39.9097 -74.9086 49° Northeast 479 551 32,600 1,140 Climbing New York Center
02:58PM 40.0042 -74.7681 49° Northeast 500 575 33,000 180 Climbing New York Center
02:59PM 40.1072 -74.6139 49° Northeast 518 596 33,000  Level New York Center
03:00PM 40.2017 -74.4669 50° Northeast 512 589 33,000  Level New York Center
03:01PM 40.2936 -74.3247 50° Northeast 512 589 33,000  Level New York Center
03:02PM 40.3831 -74.1850 50° Northeast 512 589 33,000 -300 Level New York Center
03:04PM 40.5675 -73.9044 49° Northeast 505 581 32,200 -1,200 Descending Boston Center
03:05PM 40.6589 -73.7586 50° Northeast 505 581 29,500 -3,060 Descending Boston Center
03:06PM 40.7650 -73.5856 51° Northeast 526 605 26,200 -2,820 Descending Boston Center
03:07PM 40.8558 -73.4417 50° Northeast 531 611 24,000 -1,200 Descending Boston Center
03:08PM 40.9422 -73.3219 46° Northeast 507 583 23,800 -540 Descending Boston Center
03:09PM 41.0350 -73.1831 48° Northeast 501 577 23,000 -420 Descending Boston Center
03:10PM 41.1253 -73.0464 49° Northeast 496 571 23,000  Level Boston Center
03:11PM 41.2136 -72.9064 50° Northeast 490 564 23,000  Level Boston Center
03:12PM 41.2789 -72.7522 61° Northeast 478 550 23,000  Level Boston Center
03:13PM 41.3375 -72.6006 63° Northeast 466 536 23,000  Level Boston Center
03:14PM 41.3917 -72.4511 64° Northeast 452 520 23,000  Level Boston Center
03:15PM 41.4458 -72.2989 65° Northeast 447 514 23,000  Level Boston Center
03:16PM 41.5017 -72.1519 63° Northeast 441 507 23,000  Level Boston Center
03:17PM 41.5556 -71.9964 65° Northeast 448 516 23,000 -360 Level Boston Center
03:18PM 41.6028 -71.8406 68° East 453 521 22,300 -1,560 Descending Boston Center
03:19PM 41.6478 -71.6900 68° East 453 521 20,000 -2,340 Descending Boston Center
03:20PM 41.6925 -71.5394 68° East 447 514 17,800 -2,640 Descending Boston Center
03:21PM 41.7472 -71.3856 64° Northeast 416 479 14,700 -2,940 Descending Boston Center
03:22PM 41.8025 -71.2761 56° Northeast 394 453 12,000 -2,340 Descending Boston Center
03:23PM 41.8961 -71.2547 10° North 313 360 10,100 -1,680 Descending Boston Center
03:24PM 41.9711 -71.2506 North 295 339 8,700 -1,500 Descending Boston Center
03:25PM 42.0606 -71.2461 North 289 333 7,100 -1,500 Descending Boston Center
03:26PM 42.1356 -71.2392 North 294 338 5,800 -1,080 Descending Boston Center
03:27PM 42.2206 -71.1925 22° Northeast 294 338 5,000 -420 Descending Boston Center
03:28PM 42.2911 -71.1547 22° Northeast 300 345 5,000  Level Boston Center
03:29PM 42.3800 -71.1078 21° North 308 354 5,000 -480 Level Boston Center
03:30PM 42.4442 -71.0756 20° North 296 341 4,100 -1,020 Descending Boston Center
03:31PM 42.5189 -71.0431 18° North 260 299 3,000 -540 Descending Boston Center
03:32PM 42.5475 -70.9944 51° Northeast 220 253 3,100  Climbing Boston Center
03:33PM 42.5167 -70.9167 118° Southeast 186 214 3,000 -300 Descending KA90
03:34PM 42.4833 -70.9333 200° South 146 168 2,500 -660 Descending KA90
03:35PM 42.4500 -70.9667 216° Southwest 147 169 1,700 -720 Descending KA90
03:36PM 42.4167 -70.9833 200° South 108 124 1,100 -600 Descending KA90
03:37PM 42.4000 -70.9833 180° South 108 124 600 -540 Descending KA90
03:39PM 42.3630 -71.0064 200° South  Level Estimated